Platteville, WI (53818)

11:19 AM CDT on September 01, 2015 (GMT -0500)
UW-Platteville Campus | | Change Station
CLOSE
Current Station
Personal Weather Station
Location: Platteville, WI
Elevation: 1000 ft
Nearby Weather Stations

Elev 1000 ft 42.73 °N, 90.49 °W | Updated 1 second ago

Clear
Clear
80.8 °F
Feels Like 86 °F
N
4.0
Wind Variable Wind from SSW
Gusts 15.0 mph

Today
High -- | Low -- °F
--% Chance of Precip.
Yesterday
High -- | Low -- °F
Precip. -- in
6:26 AM 7:36 PM
Waning Gibbous, 88% visible
Pressure 30.01 in
Visibility 7.0 miles
Clouds Clear
Heat Index 86 °F
Dew Point 74 °F
Humidity 81%
Rainfall 0.00 in
Snow Depth Not available.
UV 6 out of 12
Pollen 10.50 out of 12
Air Quality Not available.
Flu Activity Not available.
METAR KPVB 011555Z AUTO 20009KT 7SM CLR 27/24 A3001 RMK AO1 T02680237
Pressure 30.01 in
Visibility 7.0 miles
Clouds Clear
Heat Index 86 °F
Dew Point 74 °F
Humidity 81%
Rainfall 0.00 in
Snow Depth Not available.
UV 6 out of 12
Pollen 10.50 out of 12
Air Quality Not available.
Flu Activity Not available.
METAR KPVB 011555Z AUTO 20009KT 7SM CLR 27/24 A3001 RMK AO1 T02680237

10-Day Weather Forecast

×

Almanac

Astronomy

Sep. 01, 2015 Rise Set
Actual Time
Civil Twilight
Nautical Twilight
Astronomical Twilight
Moon
Length of Visible Light
Length of Day
Tomorrow will be .
, % of the Moon is Illuminated

Today's Extremes

State Highs State Lows

Community

WunderPhotos

Upload Photos

1,851,544 photos uploaded!

WunderBlogs® & News

Nearby

Air Quality

  Air Quality AQ Index Pollutant
Not available.

Snow Depth

Station Depth Elevation

Earthquake Activity

City Distance Mag. Time & Date
Minimum magnitude displayed is 2.5.

Coastal Water Temperatures

Place Temperature

Stations

Nearby Weather Stations

Station Location Temp. Windchill Dew Point Humidity Wind Precip. Elev Updated Type